Time;durP1;ratioP1;P1;durP2;ratioP2;P2;SDS_P1;SDS_P2;PMS_P1;PMS_P2;Temp;Humidity;BMP_temperature;BMP_pressure;BME280_temperature;BME280_humidity;BME280_pressure;Samples;Min_cycle;Max_cycle;Signal;HPM_P1;HPM_P2
2023/05/28 00:02:09;;;;;;;16.85;5.25;;;12.80;99.90;;;;;;5095086;28;20113;-58
2023/05/28 00:04:35;;;;;;;13.45;4.93;;;12.70;99.90;;;;;;5094881;28;20050;-58
2023/05/28 00:07:01;;;;;;;16.92;5.00;;;12.70;99.90;;;;;;5094893;28;20375;-57
2023/05/28 00:09:26;;;;;;;13.55;4.47;;;12.70;99.90;;;;;;5095007;28;20035;-58
2023/05/28 00:11:52;;;;;;;19.88;5.45;;;12.70;99.90;;;;;;5094876;28;20028;-58
2023/05/28 00:14:18;;;;;;;17.63;5.13;;;12.70;99.90;;;;;;5094952;28;20375;-57
2023/05/28 00:16:45;;;;;;;16.10;5.03;;;12.70;99.90;;;;;;5094748;28;20043;-57
2023/05/28 00:19:11;;;;;;;13.75;5.65;;;12.70;99.90;;;;;;5094902;28;20509;-58
2023/05/28 00:21:37;;;;;;;17.40;4.93;;;12.80;99.90;;;;;;5075688;28;20541;-57
2023/05/28 00:24:03;;;;;;;10.00;4.43;;;12.80;99.90;;;;;;5074663;28;20040;-57
2023/05/28 00:26:29;;;;;;;13.20;5.03;;;12.70;99.90;;;;;;5073930;28;20047;-58
2023/05/28 00:28:55;;;;;;;15.70;4.85;;;12.70;99.90;;;;;;5106932;28;20048;-57
2023/05/28 00:31:21;;;;;;;12.77;4.50;;;12.70;99.90;;;;;;5074615;28;20508;-57
2023/05/28 00:33:47;;;;;;;19.83;5.00;;;12.70;99.90;;;;;;5074248;28;20078;-56
2023/05/28 00:36:13;;;;;;;15.27;5.47;;;12.80;99.90;;;;;;5074491;28;20119;-57
2023/05/28 00:38:38;;;;;;;17.35;5.60;;;12.80;99.90;;;;;;5074313;28;20040;-56
2023/05/28 00:41:04;;;;;;;16.48;5.78;;;12.80;99.90;;;;;;5086628;28;20044;-58
2023/05/28 00:43:31;;;;;;;17.30;5.05;;;12.80;99.90;;;;;;5094198;28;20040;-57
2023/05/28 00:46:01;;;;;;;18.63;5.07;;;12.90;99.90;;;;;;5094087;28;20060;-57
2023/05/28 00:48:27;;;;;;;14.70;5.30;;;12.90;99.90;;;;;;5094423;28;20036;-58
2023/05/28 00:50:53;;;;;;;15.10;5.25;;;12.80;99.90;;;;;;5094409;28;20102;-58
2023/05/28 00:53:19;;;;;;;16.67;4.82;;;12.70;99.90;;;;;;5094132;28;20051;-57
2023/05/28 00:55:45;;;;;;;16.85;4.75;;;12.80;99.90;;;;;;5094099;28;20494;-57
2023/05/28 00:58:11;;;;;;;18.23;4.95;;;12.70;99.90;;;;;;5094255;28;20647;-57
2023/05/28 01:00:37;;;;;;;18.42;4.95;;;12.70;99.90;;;;;;5094042;28;20035;-57
2023/05/28 01:03:04;;;;;;;11.75;4.28;;;12.70;99.90;;;;;;5092734;28;20083;-57
2023/05/28 01:05:34;;;;;;;18.00;4.75;;;12.70;99.90;;;;;;5093913;28;20036;-57
2023/05/28 01:08:05;;;;;;;17.45;5.93;;;12.70;99.90;;;;;;5093979;28;20367;-58
2023/05/28 01:10:31;;;;;;;14.95;5.30;;;12.60;99.90;;;;;;5094025;28;20091;-57
2023/05/28 01:13:00;;;;;;;15.45;5.55;;;12.60;99.90;;;;;;5094069;28;20058;-57
2023/05/28 01:15:26;;;;;;;16.42;5.35;;;12.60;99.90;;;;;;5093551;28;20040;-57
2023/05/28 01:17:58;;;;;;;14.00;5.25;;;12.70;99.90;;;;;;5093974;28;20046;-58
2023/05/28 01:20:27;;;;;;;20.08;5.40;;;12.60;99.90;;;;;;5084863;28;20037;-58
2023/05/28 01:22:58;;;;;;;18.23;5.07;;;12.60;99.90;;;;;;5072236;28;20036;-58
2023/05/28 01:25:24;;;;;;;14.90;5.00;;;12.60;99.90;;;;;;5073377;28;20041;-58
2023/05/28 01:27:50;;;;;;;14.25;6.35;;;12.60;99.90;;;;;;5071937;28;20045;-58
2023/05/28 01:30:16;;;;;;;16.50;5.30;;;12.60;99.90;;;;;;5073110;28;20032;-58
2023/05/28 01:32:42;;;;;;;18.55;4.72;;;12.60;99.90;;;;;;5073170;28;20044;-56
2023/05/28 01:35:09;;;;;;;19.23;5.00;;;12.60;99.90;;;;;;5072851;28;20050;-58
2023/05/28 01:37:39;;;;;;;18.40;5.53;;;12.60;99.90;;;;;;5073019;28;20057;-59
2023/05/28 01:40:06;;;;;;;20.00;5.30;;;12.70;99.90;;;;;;5072368;28;20052;-57
2023/05/28 01:42:33;;;;;;;17.52;6.05;;;12.70;99.90;;;;;;5073623;28;20086;-58
2023/05/28 01:45:00;;;;;;;18.23;5.88;;;12.80;99.90;;;;;;5093129;28;20040;-57
2023/05/28 01:47:26;;;;;;;23.13;6.55;;;12.70;99.90;;;;;;5091087;28;20508;-57
2023/05/28 01:49:52;;;;;;;17.02;7.03;;;12.70;99.90;;;;;;5093164;28;20493;-57
2023/05/28 01:52:18;;;;;;;19.45;5.95;;;12.70;99.90;;;;;;5093179;28;20050;-57
2023/05/28 01:54:45;;;;;;;16.23;6.20;;;12.70;99.90;;;;;;5093291;28;20044;-58
2023/05/28 01:57:11;;;;;;;15.40;6.05;;;12.80;99.90;;;;;;5093011;28;20038;-58
2023/05/28 01:59:37;;;;;;;16.67;6.43;;;12.70;99.90;;;;;;5092959;28;20115;-58
2023/05/28 02:02:03;;;;;;;26.40;6.10;;;12.60;99.90;;;;;;5092901;28;20464;-57
2023/05/28 02:04:29;;;;;;;16.02;5.75;;;12.50;99.90;;;;;;5091620;28;20405;-58
2023/05/28 02:06:55;;;;;;;19.13;4.60;;;12.50;99.90;;;;;;5091264;28;20036;-57
2023/05/28 02:09:21;;;;;;;17.42;5.13;;;12.60;99.90;;;;;;5092913;28;20036;-58
2023/05/28 02:11:47;;;;;;;15.52;5.15;;;12.50;99.90;;;;;;5092960;28;20059;-58
2023/05/28 02:14:14;;;;;;;13.80;6.13;;;12.50;99.90;;;;;;5092546;28;20035;-57
2023/05/28 02:16:42;;;;;;;17.80;6.13;;;12.50;99.90;;;;;;5084787;28;20093;-57
2023/05/28 02:19:09;;;;;;;15.43;4.93;;;12.50;99.90;;;;;;5072407;28;20040;-57
2023/05/28 02:21:35;;;;;;;16.00;5.40;;;12.50;99.90;;;;;;5092560;28;20035;-57
2023/05/28 02:24:01;;;;;;;12.82;5.00;;;12.50;99.90;;;;;;5091288;28;20089;-57
2023/05/28 02:26:27;;;;;;;19.10;5.85;;;12.50;99.90;;;;;;5092504;28;20036;-57
2023/05/28 02:28:53;;;;;;;16.23;5.10;;;12.40;99.90;;;;;;5087426;28;20119;-57
2023/05/28 02:31:19;;;;;;;12.48;4.60;;;12.40;99.90;;;;;;5093026;28;20046;-58
2023/05/28 02:33:44;;;;;;;16.88;4.95;;;12.50;99.90;;;;;;5092539;28;20044;-58
2023/05/28 02:36:13;;;;;;;12.85;4.55;;;12.40;99.90;;;;;;5092806;28;20044;-56
2023/05/28 02:38:39;;;;;;;;;;;12.40;99.90;;;;;;5092894;28;20097;-57
2023/05/28 02:41:05;;;;;;;15.60;5.20;;;12.50;99.90;;;;;;5092717;28;19916;-57
2023/05/28 02:43:31;;;;;;;17.15;5.57;;;12.40;99.90;;;;;;5092748;28;20474;-57
2023/05/28 02:45:56;;;;;;;12.93;5.65;;;12.50;99.90;;;;;;5092270;28;20073;-56
2023/05/28 02:48:22;;;;;;;20.65;6.40;;;12.50;99.90;;;;;;5092454;28;20044;-57
2023/05/28 02:50:48;;;;;;;19.77;5.95;;;12.40;99.90;;;;;;5094733;28;20036;-56
2023/05/28 02:53:14;;;;;;;19.95;6.53;;;12.50;99.90;;;;;;5096303;28;20032;-56
2023/05/28 02:55:39;;;;;;;20.83;6.32;;;12.50;99.90;;;;;;5096296;28;20470;-56
2023/05/28 02:58:05;;;;;;;17.70;6.30;;;12.50;99.90;;;;;;5096216;28;20035;-57
2023/05/28 03:00:31;;;;;;;18.15;5.60;;;12.50;99.90;;;;;;5095029;28;20048;-57
2023/05/28 03:02:57;;;;;;;15.85;6.10;;;12.40;99.90;;;;;;5096115;28;20027;-57
2023/05/28 03:05:23;;;;;;;14.13;5.88;;;12.40;99.90;;;;;;5096531;28;20080;-58
2023/05/28 03:07:49;;;;;;;17.88;5.70;;;12.30;99.90;;;;;;5095749;28;20116;-55
2023/05/28 03:10:15;;;;;;;11.80;5.47;;;12.40;99.90;;;;;;5096226;28;20479;-56
2023/05/28 03:12:41;;;;;;;15.45;5.75;;;12.30;99.90;;;;;;5094842;28;20073;-57
2023/05/28 03:15:07;;;;;;;16.33;5.93;;;12.30;99.90;;;;;;5095702;28;20063;-58
2023/05/28 03:17:33;;;;;;;14.43;5.22;;;12.40;99.90;;;;;;5096069;28;20036;-57
2023/05/28 03:19:58;;;;;;;12.20;5.32;;;12.30;99.90;;;;;;5094575;28;20047;-57
2023/05/28 03:22:25;;;;;;;16.55;5.47;;;12.40;99.90;;;;;;5095792;28;20039;-58
2023/05/28 03:24:50;;;;;;;18.83;6.22;;;12.30;99.90;;;;;;5096100;28;20043;-57
2023/05/28 03:27:16;;;;;;;12.35;5.50;;;12.20;99.90;;;;;;5094365;28;20173;-57
2023/05/28 03:29:42;;;;;;;14.93;5.53;;;12.10;99.90;;;;;;5095881;28;20039;-57
2023/05/28 03:32:07;;;;;;;16.73;6.20;;;12.20;99.90;;;;;;5096118;28;20034;-57
2023/05/28 03:34:33;;;;;;;20.17;5.75;;;12.10;99.90;;;;;;5095738;28;20036;-57
2023/05/28 03:36:59;;;;;;;16.77;5.55;;;12.10;99.90;;;;;;5095455;28;20079;-57
2023/05/28 03:39:25;;;;;;;17.63;5.82;;;12.10;99.90;;;;;;5095732;28;20108;-57
2023/05/28 03:41:50;;;;;;;19.30;5.50;;;12.10;99.90;;;;;;5095806;28;20043;-57
2023/05/28 03:44:17;;;;;;;19.55;5.55;;;12.10;99.90;;;;;;5095509;28;20055;-57
2023/05/28 03:46:43;;;;;;;13.90;4.95;;;12.10;99.90;;;;;;5095519;28;20036;-57
2023/05/28 03:49:08;;;;;;;19.85;6.40;;;12.00;99.90;;;;;;5095244;28;20508;-57
2023/05/28 03:51:34;;;;;;;14.57;5.95;;;12.10;99.90;;;;;;5095397;28;20028;-56
2023/05/28 03:54:00;;;;;;;19.00;5.28;;;12.10;99.90;;;;;;5095283;28;20068;-57
2023/05/28 03:56:26;;;;;;;13.88;5.53;;;12.10;99.90;;;;;;5095442;28;20374;-57
2023/05/28 03:58:52;;;;;;;13.60;4.80;;;12.20;99.90;;;;;;5095409;28;20047;-57
2023/05/28 04:01:18;;;;;;;12.70;4.70;;;12.20;99.90;;;;;;5094605;28;20032;-57
2023/05/28 04:03:43;;;;;;;16.60;6.07;;;12.20;99.90;;;;;;5094955;28;20490;-57
2023/05/28 04:06:10;;;;;;;11.45;5.03;;;12.20;99.90;;;;;;5094831;28;20482;-57
2023/05/28 04:08:35;;;;;;;10.48;4.45;;;12.30;99.90;;;;;;5093306;28;20040;-57
2023/05/28 04:11:01;;;;;;;13.18;5.65;;;12.20;99.90;;;;;;5095066;28;20036;-57
2023/05/28 04:13:27;;;;;;;14.30;5.00;;;12.20;99.90;;;;;;5094893;28;20032;-57
2023/05/28 04:15:53;;;;;;;15.85;5.10;;;12.30;99.90;;;;;;5094702;28;20043;-57
2023/05/28 04:18:18;;;;;;;13.98;5.05;;;12.30;99.90;;;;;;5094792;28;20036;-56
2023/05/28 04:20:44;;;;;;;17.02;5.45;;;12.30;99.90;;;;;;5127406;27;20520;-57
2023/05/28 04:23:10;;;;;;;13.32;4.80;;;12.30;99.90;;;;;;5094983;28;20040;-58
2023/05/28 04:25:36;;;;;;;15.35;5.18;;;12.30;99.90;;;;;;5093413;28;20047;-57
2023/05/28 04:28:03;;;;;;;20.55;5.47;;;12.30;99.90;;;;;;5094648;28;20355;-57
2023/05/28 04:30:28;;;;;;;12.18;4.68;;;12.40;99.90;;;;;;5094469;28;20028;-57
2023/05/28 04:32:54;;;;;;;11.27;4.40;;;12.40;99.90;;;;;;5094542;28;20505;-56
2023/05/28 04:35:21;;;;;;;11.60;4.22;;;12.40;99.90;;;;;;5094338;28;20036;-57
2023/05/28 04:37:47;;;;;;;11.88;4.75;;;12.40;99.90;;;;;;5094767;28;20042;-58
2023/05/28 04:40:12;;;;;;;17.17;4.53;;;12.50;99.90;;;;;;5094555;28;20036;-58
2023/05/28 04:42:40;;;;;;;15.68;4.70;;;12.50;99.90;;;;;;5127429;27;20066;-57
2023/05/28 04:45:07;;;;;;;17.25;5.57;;;12.40;99.90;;;;;;5094123;28;20474;-57
2023/05/28 04:47:34;;;;;;;12.95;4.43;;;12.40;99.90;;;;;;5094192;28;20381;-57
2023/05/28 04:50:03;;;;;;;14.73;4.70;;;12.50;99.90;;;;;;5094224;28;20046;-58
2023/05/28 04:52:30;;;;;;;13.88;4.45;;;12.50;99.90;;;;;;5094360;28;20032;-58
2023/05/28 04:54:56;;;;;;;16.02;4.78;;;12.60;99.90;;;;;;5094261;28;20036;-58
2023/05/28 04:57:22;;;;;;;17.38;4.97;;;12.60;99.90;;;;;;5093865;28;20085;-58
2023/05/28 04:59:49;;;;;;;16.23;5.13;;;12.60;99.90;;;;;;5094036;28;20531;-58
2023/05/28 05:02:18;;;;;;;15.02;5.63;;;12.70;99.90;;;;;;5093934;28;20546;-57
2023/05/28 05:04:44;;;;;;;20.88;4.93;;;12.80;99.90;;;;;;5093768;28;20040;-56
2023/05/28 05:07:13;;;;;;;20.10;6.32;;;12.80;99.90;;;;;;5093614;28;20482;-56
2023/05/28 05:09:39;;;;;;;12.25;5.35;;;12.90;99.90;;;;;;5094037;28;20040;-57
2023/05/28 05:12:05;;;;;;;17.73;6.22;;;12.90;99.90;;;;;;5093864;28;20166;-57
2023/05/28 05:14:31;;;;;;;11.93;5.55;;;12.90;99.90;;;;;;5090093;28;20040;-57
2023/05/28 05:16:57;;;;;;;18.23;5.40;;;12.90;99.90;;;;;;5066883;28;20044;-57
2023/05/28 05:19:22;;;;;;;12.98;4.63;;;13.10;99.90;;;;;;5073437;28;20042;-57
2023/05/28 05:21:48;;;;;;;12.55;5.50;;;13.30;99.90;;;;;;5071938;28;20433;-57
2023/05/28 05:24:14;;;;;;;11.48;4.50;;;13.40;99.90;;;;;;5072087;28;20075;-56
2023/05/28 05:26:40;;;;;;;12.73;4.72;;;13.50;99.90;;;;;;5087612;28;20483;-57
2023/05/28 05:29:05;;;;;;;11.40;4.68;;;13.60;99.90;;;;;;5091240;28;20127;-57
2023/05/28 05:31:31;;;;;;;13.63;5.57;;;13.70;99.90;;;;;;5120213;27;20075;-57
2023/05/28 05:33:57;;;;;;;13.82;4.78;;;13.80;99.90;;;;;;5074636;28;20036;-57
2023/05/28 05:36:22;;;;;;;12.82;4.28;;;13.90;99.90;;;;;;5092287;28;20122;-57
2023/05/28 05:38:48;;;;;;;14.55;5.72;;;14.00;99.90;;;;;;5093219;28;20500;-58
2023/05/28 05:41:13;;;;;;;12.10;4.28;;;14.10;99.90;;;;;;5091410;28;20042;-58
2023/05/28 05:43:39;;;;;;;8.35;4.35;;;14.10;99.90;;;;;;5084844;28;20093;-57
2023/05/28 05:46:05;;;;;;;14.27;5.10;;;14.30;99.90;;;;;;5092948;28;20059;-57
2023/05/28 05:48:30;;;;;;;12.80;4.35;;;14.40;99.90;;;;;;5091061;28;20076;-58
2023/05/28 05:50:58;;;;;;;11.48;4.35;;;14.50;99.90;;;;;;5088427;28;20028;-57
2023/05/28 05:53:24;;;;;;;13.20;5.03;;;14.60;99.90;;;;;;5093441;28;20079;-57
2023/05/28 05:55:50;;;;;;;12.63;4.63;;;14.70;99.90;;;;;;5093016;28;20111;-58
2023/05/28 05:58:16;;;;;;;6.28;2.78;;;14.90;99.90;;;;;;5093328;28;20062;-58
2023/05/28 06:00:42;;;;;;;8.20;3.08;;;15.00;99.90;;;;;;5093059;28;20476;-58
2023/05/28 06:03:08;;;;;;;14.48;4.85;;;15.20;99.90;;;;;;5092586;28;20036;-57
2023/05/28 06:05:34;;;;;;;10.85;4.82;;;15.20;99.90;;;;;;5092710;28;20051;-57
2023/05/28 06:08:02;;;;;;;7.50;3.25;;;15.40;99.90;;;;;;5092783;28;20044;-57
2023/05/28 06:10:29;;;;;;;13.60;4.97;;;15.50;99.90;;;;;;5092870;28;20042;-57
2023/05/28 06:13:01;;;;;;;14.10;5.35;;;15.70;99.90;;;;;;5092886;28;20040;-57
2023/05/28 06:15:27;;;;;;;12.25;5.75;;;15.70;99.90;;;;;;5092527;28;20106;-58
2023/05/28 06:17:53;;;;;;;17.70;5.53;;;15.80;99.90;;;;;;5093062;28;20058;-57
2023/05/28 06:20:19;;;;;;;11.30;5.00;;;15.90;99.90;;;;;;5092346;28;20032;-58
2023/05/28 06:22:45;;;;;;;10.77;4.65;;;16.00;99.90;;;;;;5092523;28;20047;-58
2023/05/28 06:25:11;;;;;;;12.57;4.90;;;16.20;99.90;;;;;;5092254;28;20051;-58
2023/05/28 06:27:37;;;;;;;9.57;4.47;;;16.40;99.90;;;;;;5092834;28;20120;-56
2023/05/28 06:30:04;;;;;;;15.65;5.47;;;16.50;99.90;;;;;;5092208;28;20466;-57
2023/05/28 06:32:31;;;;;;;12.40;5.22;;;16.50;99.90;;;;;;5092851;28;20040;-56
2023/05/28 06:34:57;;;;;;;14.38;5.85;;;16.50;99.90;;;;;;5092313;28;20036;-57
2023/05/28 06:37:22;;;;;;;11.63;4.75;;;16.60;99.90;;;;;;5092502;28;20048;-56
2023/05/28 06:39:48;;;;;;;12.70;4.50;;;16.90;99.90;;;;;;5092588;28;20044;-56
2023/05/28 06:42:14;;;;;;;8.35;3.95;;;16.70;99.90;;;;;;5084898;28;20044;-57
2023/05/28 06:44:40;;;;;;;12.48;4.85;;;16.90;99.90;;;;;;5076949;28;20479;-57
2023/05/28 06:47:05;;;;;;;12.82;4.35;;;17.30;99.90;;;;;;5072327;28;20048;-57
2023/05/28 06:49:31;;;;;;;9.63;3.97;;;17.30;99.90;;;;;;5072265;28;20039;-57
2023/05/28 06:51:58;;;;;;;10.30;3.83;;;17.30;99.90;;;;;;5072124;28;20386;-57
2023/05/28 06:54:23;;;;;;;13.15;5.03;;;17.40;99.90;;;;;;5072147;28;20119;-58
2023/05/28 06:56:49;;;;;;;10.32;4.20;;;17.50;99.90;;;;;;5071987;28;20119;-57
2023/05/28 06:59:15;;;;;;;12.02;4.43;;;17.60;99.90;;;;;;5072273;28;20072;-57
2023/05/28 07:01:41;;;;;;;10.77;4.57;;;17.70;99.90;;;;;;5071820;28;20048;-58
2023/05/28 07:04:06;;;;;;;11.98;4.00;;;17.80;99.90;;;;;;5072018;28;20028;-57
2023/05/28 07:06:32;;;;;;;8.60;3.55;;;18.10;99.90;;;;;;5072000;28;20435;-57
2023/05/28 07:08:58;;;;;;;10.38;4.15;;;18.30;99.90;;;;;;5071937;28;20544;-57
2023/05/28 07:11:23;;;;;;;11.63;4.43;;;18.40;99.90;;;;;;5071918;28;20135;-58
2023/05/28 07:13:49;;;;;;;12.73;4.50;;;18.50;99.90;;;;;;5071994;28;20040;-58
2023/05/28 07:16:15;;;;;;;9.23;3.80;;;18.30;99.90;;;;;;5104546;28;20123;-57
2023/05/28 07:18:41;;;;;;;11.30;3.83;;;18.70;99.90;;;;;;5071785;28;20037;-57
2023/05/28 07:21:06;;;;;;;10.85;3.92;;;18.70;99.90;;;;;;5071586;28;20040;-58
2023/05/28 07:23:32;;;;;;;10.85;4.70;;;18.80;99.90;;;;;;5071933;28;20031;-58
2023/05/28 07:25:58;;;;;;;12.85;4.70;;;18.80;99.90;;;;;;5071773;28;20032;-58
2023/05/28 07:28:23;;;;;;;9.10;3.72;;;18.80;99.90;;;;;;5070251;28;20386;-58
2023/05/28 07:30:49;;;;;;;9.38;4.03;;;18.60;99.90;;;;;;5065090;28;20467;-57
2023/05/28 07:33:15;;;;;;;7.30;3.63;;;18.50;99.90;;;;;;5071691;28;20068;-58
2023/05/28 07:35:41;;;;;;;9.43;3.53;;;18.70;99.90;;;;;;5088066;28;20408;-58
2023/05/28 07:38:07;;;;;;;8.50;3.45;;;18.90;99.90;;;;;;5094518;28;20456;-57
2023/05/28 07:40:33;;;;;;;7.78;3.75;;;18.70;99.90;;;;;;5095846;28;20098;-58
2023/05/28 07:42:58;;;;;;;7.75;3.70;;;19.30;99.90;;;;;;5095458;28;20083;-58
2023/05/28 07:45:24;;;;;;;7.97;3.53;;;19.20;99.90;;;;;;5095281;28;20067;-57
2023/05/28 07:47:50;;;;;;;5.78;3.17;;;19.80;99.90;;;;;;5095352;28;20047;-57
2023/05/28 07:50:15;;;;;;;6.25;3.38;;;19.70;99.90;;;;;;5095270;28;20032;-57
2023/05/28 07:52:41;;;;;;;6.78;3.78;;;19.70;99.90;;;;;;5072886;28;20029;-58
2023/05/28 07:55:07;;;;;;;8.70;3.20;;;19.90;99.90;;;;;;5075170;28;20037;-58
2023/05/28 07:57:33;;;;;;;7.35;3.25;;;19.50;99.90;;;;;;5074742;28;20044;-57
2023/05/28 08:00:00;;;;;;;5.72;2.92;;;19.80;99.90;;;;;;5074862;28;20032;-58
2023/05/28 08:02:26;;;;;;;7.57;3.38;;;20.20;99.90;;;;;;5069976;28;20041;-57
2023/05/28 08:04:53;;;;;;;8.50;3.50;;;20.10;99.90;;;;;;5068139;28;20036;-58
2023/05/28 08:07:19;;;;;;;6.57;2.92;;;20.50;99.90;;;;;;5074721;28;20613;-56
2023/05/28 08:09:45;;;;;;;5.30;3.22;;;20.50;99.90;;;;;;5074851;28;20123;-58
2023/05/28 08:12:10;;;;;;;7.13;3.58;;;20.70;99.90;;;;;;5075096;28;20033;-57
2023/05/28 08:14:36;;;;;;;6.55;3.60;;;20.90;99.90;;;;;;5074767;28;20071;-58
2023/05/28 08:17:02;;;;;;;5.15;3.22;;;21.10;99.90;;;;;;5106523;28;20052;-58
2023/05/28 08:19:27;;;;;;;7.63;4.00;;;21.40;99.20;;;;;;5075066;28;20477;-58
2023/05/28 08:21:53;;;;;;;8.82;4.03;;;21.60;99.30;;;;;;5074594;28;20068;-59
2023/05/28 08:24:20;;;;;;;7.05;4.35;;;21.80;99.30;;;;;;5074449;28;20086;-58
2023/05/28 08:26:46;;;;;;;11.52;4.53;;;22.00;99.80;;;;;;5074200;28;20036;-58
2023/05/28 08:29:12;;;;;;;9.50;4.45;;;21.60;97.50;;;;;;5080195;28;20032;-59
2023/05/28 08:31:37;;;;;;;8.48;4.45;;;21.20;98.40;;;;;;5077671;28;20055;-58
2023/05/28 08:34:03;;;;;;;10.25;4.47;;;21.50;98.70;;;;;;5111342;27;20115;-58
2023/05/28 08:36:29;;;;;;;9.68;4.47;;;21.30;98.20;;;;;;5094149;28;20143;-58
2023/05/28 08:38:55;;;;;;;10.23;4.63;;;21.40;99.00;;;;;;5094096;28;20040;-58
2023/05/28 08:41:21;;;;;;;7.78;4.72;;;21.50;99.10;;;;;;5093770;28;20452;-58
2023/05/28 08:43:47;;;;;;;6.10;4.53;;;21.60;98.90;;;;;;5093979;28;20040;-58
2023/05/28 08:46:14;;;;;;;6.55;4.20;;;21.50;99.00;;;;;;5093724;28;20451;-58
2023/05/28 08:48:41;;;;;;;9.38;4.07;;;21.60;99.50;;;;;;5093863;28;20108;-57
2023/05/28 08:51:08;;;;;;;8.43;4.88;;;21.50;99.70;;;;;;5094335;28;20036;-58
2023/05/28 08:53:45;;;;;;;7.57;4.55;;;21.50;99.20;;;;;;5093965;28;20028;-57
2023/05/28 08:56:12;;;;;;;8.63;4.78;;;21.50;99.10;;;;;;5106550;27;20448;-57
2023/05/28 08:58:39;;;;;;;8.23;4.78;;;21.50;99.90;;;;;;5074981;28;20461;-56
2023/05/28 09:01:08;;;;;;;7.75;5.00;;;21.50;99.30;;;;;;5073456;28;20071;-57
2023/05/28 09:03:35;;;;;;;8.85;5.50;;;21.40;99.40;;;;;;5080787;28;20040;-57
2023/05/28 09:06:02;;;;;;;9.10;5.03;;;21.30;99.70;;;;;;5072942;28;20120;-57
2023/05/28 09:08:28;;;;;;;8.73;5.32;;;21.30;99.90;;;;;;5072328;28;20082;-57
2023/05/28 09:11:08;;;;;;;9.27;5.35;;;21.40;99.80;;;;;;5072805;28;20072;-56
2023/05/28 09:13:34;;;;;;;9.05;5.70;;;21.40;99.00;;;;;;5073234;28;20085;-59
2023/05/28 09:16:00;;;;;;;9.18;5.55;;;21.50;99.80;;;;;;5090316;28;20036;-58
2023/05/28 09:18:25;;;;;;;7.72;4.88;;;21.60;99.00;;;;;;5093485;28;20051;-59
2023/05/28 09:20:51;;;;;;;9.60;5.38;;;21.60;99.90;;;;;;5093151;28;20089;-58
2023/05/28 09:23:20;;;;;;;9.40;5.38;;;21.60;99.90;;;;;;5084870;28;20039;-59
2023/05/28 09:25:46;;;;;;;8.00;5.93;;;21.80;99.90;;;;;;5085324;28;20040;-59
2023/05/28 09:28:13;;;;;;;13.77;5.88;;;21.70;98.90;;;;;;5073570;28;20043;-59
2023/05/28 09:30:40;;;;;;;12.80;4.80;;;21.60;98.90;;;;;;5074820;28;20047;-58
2023/05/28 09:33:07;;;;;;;9.73;6.10;;;21.90;99.30;;;;;;5084468;28;20486;-57
2023/05/28 09:35:34;;;;;;;8.73;5.40;;;22.00;99.60;;;;;;5080254;28;20509;-58
2023/05/28 09:38:07;;;;;;;8.70;5.32;;;22.10;99.40;;;;;;5072375;28;20032;-58
2023/05/28 09:40:43;;;;;;;10.75;6.07;;;22.20;99.50;;;;;;5072134;28;20583;-58
2023/05/28 09:43:10;;;;;;;9.23;5.95;;;22.00;98.20;;;;;;5060173;28;20040;-58
2023/05/28 09:45:36;;;;;;;10.27;6.18;;;22.20;99.20;;;;;;5062985;28;20067;-58
2023/05/28 09:48:02;;;;;;;10.57;5.93;;;22.30;98.80;;;;;;5071437;28;20045;-59
2023/05/28 09:50:28;;;;;;;7.55;5.85;;;22.20;99.10;;;;;;5063609;28;20372;-58
2023/05/28 09:52:55;;;;;;;10.40;5.95;;;22.30;99.00;;;;;;5072189;28;20033;-58
2023/05/28 09:55:25;;;;;;;9.00;6.75;;;22.40;98.00;;;;;;5060396;28;20371;-58
2023/05/28 09:58:04;;;;;;;8.07;6.38;;;22.40;98.20;;;;;;5070691;28;20497;-58
2023/05/28 10:00:38;;;;;;;10.77;7.03;;;22.60;97.30;;;;;;5100123;28;20102;-58
2023/05/28 10:03:22;;;;;;;9.25;6.95;;;22.60;98.00;;;;;;5069852;28;20098;-57
2023/05/28 10:06:00;;;;;;;9.73;6.63;;;22.70;97.50;;;;;;5071871;28;20116;-57
2023/05/28 10:08:26;;;;;;;10.65;6.70;;;22.80;97.70;;;;;;5071979;28;20123;-57
2023/05/28 10:10:54;;;;;;;11.48;7.53;;;22.80;97.70;;;;;;5071663;28;20395;-58
2023/05/28 10:13:21;;;;;;;12.05;7.50;;;22.60;97.80;;;;;;5100081;28;20475;-58
2023/05/28 10:15:47;;;;;;;10.15;6.80;;;22.70;96.50;;;;;;5069649;28;20090;-58
2023/05/28 10:18:14;;;;;;;8.57;6.53;;;22.70;96.70;;;;;;5091835;28;20040;-58
2023/05/28 10:20:41;;;;;;;8.70;6.40;;;22.80;96.50;;;;;;5071322;28;20490;-59
2023/05/28 10:23:08;;;;;;;7.57;5.43;;;22.70;95.10;;;;;;5071700;28;20041;-58
2023/05/28 10:25:34;;;;;;;8.45;5.03;;;23.00;95.10;;;;;;5071679;28;20111;-57
2023/05/28 10:28:02;;;;;;;6.80;4.50;;;23.10;95.20;;;;;;5071375;28;20482;-57
2023/05/28 10:30:32;;;;;;;10.75;5.07;;;23.20;95.50;;;;;;5063667;28;20033;-58
2023/05/28 10:32:58;;;;;;;6.93;4.53;;;23.50;94.40;;;;;;5068496;28;20194;-57
2023/05/28 10:35:23;;;;;;;7.15;4.80;;;23.60;94.90;;;;;;5078108;28;20518;-58
2023/05/28 10:37:49;;;;;;;10.00;5.00;;;23.40;93.90;;;;;;5069824;28;20047;-58
2023/05/28 10:40:24;;;;;;;6.63;4.25;;;23.80;94.80;;;;;;5070586;28;20036;-58
2023/05/28 10:42:50;;;;;;;5.70;2.95;;;23.80;94.60;;;;;;5070027;28;20045;-59
2023/05/28 10:45:16;;;;;;;5.70;2.85;;;23.90;94.40;;;;;;5070020;28;20080;-58
2023/05/28 10:47:51;;;;;;;6.50;2.70;;;23.70;94.70;;;;;;5067217;28;20525;-58
2023/05/28 10:50:18;;;;;;;5.72;3.13;;;23.60;94.30;;;;;;5101209;28;20119;-59
2023/05/28 10:53:12;;;;;;;6.70;2.88;;;23.70;95.40;;;;;;5071811;28;20025;-58
2023/05/28 10:55:48;;;;;;;5.68;3.25;;;23.80;94.40;;;;;;5068869;28;20044;-59
2023/05/28 10:58:23;;;;;;;7.00;3.17;;;23.80;93.60;;;;;;5071166;28;20090;-59
2023/05/28 11:00:48;;;;;;;9.80;3.00;;;23.90;95.30;;;;;;5071139;28;20120;-58
2023/05/28 11:03:14;;;;;;;5.00;2.80;;;24.10;94.90;;;;;;5071448;28;20115;-58
2023/05/28 11:05:40;;;;;;;5.72;2.83;;;24.20;96.20;;;;;;5071439;28;20431;-58
2023/05/28 11:08:06;;;;;;;7.47;2.80;;;24.10;95.20;;;;;;5071547;28;20115;-56
2023/05/28 11:10:33;;;;;;;7.85;3.20;;;23.90;94.40;;;;;;5069992;28;20045;-57
2023/05/28 11:12:59;;;;;;;9.20;3.50;;;24.20;96.20;;;;;;5103814;27;20029;-57
2023/05/28 11:15:25;;;;;;;7.72;4.35;;;24.40;95.90;;;;;;5074791;28;20115;-57
2023/05/28 11:17:51;;;;;;;5.50;2.50;;;24.40;95.60;;;;;;5074941;28;20478;-58
2023/05/28 11:20:21;;;;;;;9.45;3.53;;;24.50;95.80;;;;;;5075078;28;20040;-58
2023/05/28 11:22:47;;;;;;;7.65;3.03;;;24.20;96.10;;;;;;5074445;28;20044;-58
2023/05/28 11:25:13;;;;;;;7.80;3.03;;;24.40;96.70;;;;;;5074757;28;20028;-57
2023/05/28 11:27:40;;;;;;;8.35;3.00;;;24.30;97.30;;;;;;5073656;28;20044;-58
2023/05/28 11:30:14;;;;;;;11.45;3.40;;;24.30;97.20;;;;;;5074956;28;20116;-58
2023/05/28 11:32:40;;;;;;;9.35;3.13;;;24.30;97.00;;;;;;5075235;28;20032;-58
2023/05/28 11:35:11;;;;;;;6.88;3.03;;;24.30;98.10;;;;;;5088669;28;20038;-57
2023/05/28 11:37:37;;;;;;;9.10;3.50;;;24.40;98.40;;;;;;5094384;28;20067;-57
2023/05/28 11:40:09;;;;;;;10.10;3.35;;;24.50;98.30;;;;;;5095410;28;20553;-57
2023/05/28 11:42:35;;;;;;;10.65;3.60;;;24.40;98.10;;;;;;5093737;28;20048;-57
2023/05/28 11:45:01;;;;;;;8.23;3.25;;;24.40;98.10;;;;;;5083171;28;20496;-57
2023/05/28 11:47:27;;;;;;;11.02;3.25;;;24.30;97.80;;;;;;5074678;28;20116;-57
2023/05/28 11:49:54;;;;;;;7.47;3.28;;;24.30;97.90;;;;;;5075181;28;20064;-57
2023/05/28 11:52:23;;;;;;;7.40;3.08;;;24.50;97.70;;;;;;5073353;28;20037;-58
2023/05/28 11:54:56;;;;;;;7.97;3.28;;;24.50;97.10;;;;;;5074899;28;20059;-58
2023/05/28 11:57:25;;;;;;;10.05;4.22;;;24.60;98.40;;;;;;5069591;28;20044;-57
2023/05/28 12:00:12;;;;;;;7.05;3.55;;;24.30;97.70;;;;;;5074999;28;20036;-58
2023/05/28 12:02:45;;;;;;;10.57;3.45;;;24.60;98.80;;;;;;5070613;28;20039;-58
2023/05/28 12:05:11;;;;;;;9.43;3.70;;;24.60;99.10;;;;;;5063675;28;20066;-58
2023/05/28 12:07:37;;;;;;;12.55;3.45;;;24.60;99.00;;;;;;5093138;28;20509;-58
2023/05/28 12:10:04;;;;;;;7.70;3.13;;;24.50;99.10;;;;;;5067932;28;20111;-58
2023/05/28 12:12:31;;;;;;;10.27;3.25;;;24.40;99.00;;;;;;5066748;28;20377;-58
2023/05/28 12:15:02;;;;;;;13.68;4.03;;;24.20;98.90;;;;;;5065267;28;20045;-58
2023/05/28 12:17:36;;;;;;;8.57;3.42;;;24.40;99.20;;;;;;5067490;28;20041;-58
2023/05/28 12:20:06;;;;;;;11.40;3.65;;;24.30;99.70;;;;;;5070380;28;20041;-58
2023/05/28 12:22:32;;;;;;;10.20;4.13;;;24.30;99.20;;;;;;5065083;28;20391;-59
2023/05/28 12:24:58;;;;;;;9.20;3.65;;;24.20;99.90;;;;;;5073591;28;20036;-58
2023/05/28 12:27:24;;;;;;;13.65;3.78;;;23.90;99.90;;;;;;5062271;28;20045;-58
2023/05/28 12:29:50;;;;;;;11.13;3.47;;;24.10;99.90;;;;;;5072636;28;20044;-59
2023/05/28 12:32:15;;;;;;;18.40;4.43;;;24.00;99.30;;;;;;5061728;28;20037;-58
2023/05/28 12:34:41;;;;;;;12.13;3.65;;;23.90;99.90;;;;;;5068860;28;20562;-57
2023/05/28 12:37:09;;;;;;;7.43;3.30;;;23.80;99.90;;;;;;5100435;28;20069;-58
2023/05/28 12:39:35;;;;;;;10.77;3.40;;;23.70;99.90;;;;;;5062279;28;20032;-57